Fargo, ND

12:30 PM CDT on July 25, 2016 (GMT -0500)
North Fargo | | Change Station

Elev 899 ft 46.91 °N, 96.79 °W | Updated 9 hours ago

Clear
Clear
88 °F
Feels Like 88 °F
N
11
Wind Variable Wind from SSW
Gusts 16 mph

Today
High -- | Low -- °F
--% Chance of Precip.
Yesterday
High -- | Low -- °F
Precip. -- in
Pressure 30.01 in
Visibility 10.0 miles
Clouds Clear
Heat Index 88 °F
Dew Point 60 °F
Humidity 40%
Rainfall in
Snow Depth Not available.
5:59 AM 9:07 PM
Waning Gibbous, 64% visible
METAR KFAR 251653Z 17006KT 10SM CLR 28/16 A3002 RMK AO2 SLP162 T02780161
Pressure 30.01 in
Visibility 10.0 miles
Clouds Clear
Heat Index 88 °F
Dew Point 60 °F
Humidity 40%
Rainfall in
Snow Depth Not available.
5:59 AM 9:07 PM
Waning Gibbous, 64% visible
METAR KFAR 251653Z 17006KT 10SM CLR 28/16 A3002 RMK AO2 SLP162 T02780161

10-Day Weather Forecast

Almanac

Astronomy

Jul. 25, 2016 Rise Set
Actual Time
Civil Twilight
Nautical Twilight
Astronomical Twilight
Moon
Length of Visible Light
Length of Day
Tomorrow will be .
, % of the Moon is Illuminated

Today's Extremes

State Highs State Lows

Community

WunderPhotos

Upload Photos

1,927,363 photos uploaded!

WunderBlog® & News

Nearby

Air Quality

  Air Quality AQ Index Pollutant
Not available.

Snow Depth

Station Depth Elevation

Earthquake Activity

City Distance Mag. Time & Date
Minimum magnitude displayed is 2.5.

Coastal Water Temperatures

Place Temperature

Stations

Nearby Weather Stations

Station Location Temp. Windchill Dew Point Humidity Wind Precip. Elev Updated Type
                   

Watches & Warnings

There are currently no watches in effect.